Time;durP1;ratioP1;P1;durP2;ratioP2;P2;SDS_P1;SDS_P2;PMS_P1;PMS_P2;Temp;Humidity;BMP_temperature;BMP_pressure;BME280_temperature;BME280_humidity;BME280_pressure;Samples;Min_cycle;Max_cycle;Signal;HPM_P1;HPM_P2
2021/08/14 06:05:31;;;;;;;;;;;;;;;;;;;;;
2021/08/14 06:46:34;;;;;;;;;;;;;;;;;;;;;
2021/08/14 06:49:26;;;;;;;7.28;6.22;;;;;;;22.53;71.05;97030.52;1562264;90;21130;-84
2021/08/14 06:55:14;;;;;;;7.53;6.47;;;;;;;22.66;70.87;97036.81;1452000;97;21634;-83
2021/08/14 06:58:07;;;;;;;7.95;6.95;;;;;;;22.68;70.63;97032.06;1491710;95;21928;-83
2021/08/14 07:00:53;;;;;;;;;;;;;;;;;;;;;
2021/08/14 07:03:53;;;;;;;;;;;;;;;;;;;;;
2021/08/14 07:06:00;;;;;;;7.17;6.47;;;;;;;22.79;70.77;97034.36;1613964;86;21079;-82
2021/08/14 07:08:36;;;;;;;7.72;5.95;;;;;;;22.85;70.69;97034.73;1651466;82;21022;-83
2021/08/14 07:11:03;;;;;;;8.33;6.55;;;;;;;22.90;71.02;97030.29;1760800;79;21363;-82
2021/08/14 07:13:33;;;;;;;7.95;7.08;;;;;;;22.91;70.78;97034.54;1745986;81;20949;-83
2021/08/14 07:15:58;;;;;;;7.42;6.47;;;;;;;22.95;70.51;97029.05;1770213;81;21007;-82
2021/08/14 07:18:28;;;;;;;6.55;5.95;;;;;;;22.98;70.07;97029.09;1746165;80;21341;-82
2021/08/14 07:20:54;;;;;;;7.62;6.47;;;;;;;23.03;68.84;97029.94;1762208;80;20920;-82
2021/08/14 07:23:26;;;;;;;7.12;6.42;;;;;;;23.16;68.90;97028.79;1755557;80;20964;-83
2021/08/14 07:25:55;;;;;;;6.67;6.08;;;;;;;23.24;68.98;97031.00;1743214;80;21474;-82
2021/08/14 07:28:29;;;;;;;9.25;7.08;;;;;;;23.33;69.36;97034.03;1742608;80;21074;-83
2021/08/14 07:31:13;;;;;;;;;;;;;;;;;;;;;
2021/08/14 07:33:40;;;;;;;7.65;6.95;;;;;;;23.55;68.58;97040.65;1761303;79;20983;-83
2021/08/14 07:36:12;;;;;;;8.75;6.87;;;;;;;23.61;68.08;97038.38;1744778;80;21030;-83
2021/08/14 07:38:40;;;;;;;8.93;7.53;;;;;;;23.66;67.62;97034.45;1749383;79;21373;-82
2021/08/14 07:41:06;;;;;;;7.42;6.75;;;;;;;23.75;67.74;97042.75;1739353;80;22103;-83
2021/08/14 07:43:32;;;;;;;8.35;6.72;;;;;;;23.84;67.69;97042.59;1739325;80;21023;-83
2021/08/14 07:45:57;;;;;;;10.15;6.50;;;;;;;23.90;67.33;97042.38;1735273;80;21062;-84
2021/08/14 07:48:23;;;;;;;8.03;7.03;;;;;;;23.98;68.07;97046.45;1758058;80;21015;-82
2021/08/14 07:50:49;;;;;;;8.23;6.53;;;;;;;24.03;67.64;97046.50;1734427;81;21335;-83
2021/08/14 07:53:14;;;;;;;7.70;7.00;;;;;;;24.07;67.20;97044.13;1739995;81;21350;-83
2021/08/14 07:55:40;;;;;;;7.62;6.87;;;;;;;24.10;68.12;97048.97;1740773;81;21011;-82
2021/08/14 07:58:12;;;;;;;8.68;7.03;;;;;;;24.11;68.24;97050.56;1770703;79;21310;-81
2021/08/14 08:00:39;;;;;;;7.20;6.50;;;;;;;24.15;68.22;97051.13;1763985;80;20931;-82
2021/08/14 08:03:07;;;;;;;7.25;6.15;;;;;;;24.17;67.51;97047.70;1716358;81;20968;-82
2021/08/14 08:05:33;;;;;;;7.22;6.53;;;;;;;24.26;66.62;97046.72;1744119;80;20950;-82
2021/08/14 08:08:04;;;;;;;8.03;7.20;;;;;;;24.33;66.61;97050.52;1762735;80;20998;-83
2021/08/14 08:10:30;;;;;;;7.97;7.25;;;;;;;24.41;67.02;97050.87;1764076;81;21003;-82
2021/08/14 08:12:56;;;;;;;8.15;6.42;;;;;;;24.50;66.60;97040.56;1760782;80;21010;-84
2021/08/14 08:15:22;;;;;;;7.47;6.70;;;;;;;24.61;66.91;97044.91;1756054;80;21001;-82
2021/08/14 08:17:48;;;;;;;7.85;6.87;;;;;;;24.72;66.08;97037.25;1758295;80;20998;-83
2021/08/14 08:20:15;;;;;;;7.87;7.08;;;;;;;24.85;66.08;97038.67;1725206;81;21371;-82
2021/08/14 08:22:42;;;;;;;8.00;6.53;;;;;;;24.96;65.84;97040.34;1738487;80;21308;-83
2021/08/14 08:25:09;;;;;;;7.60;6.87;;;;;;;25.05;65.65;97045.98;1740118;80;21072;-82
2021/08/14 08:27:38;;;;;;;7.53;6.83;;;;;;;25.07;64.32;97040.71;1743165;80;20950;-82
2021/08/14 08:30:06;;;;;;;9.98;7.37;;;;;;;25.06;64.78;97044.43;1745548;81;20993;-81
2021/08/14 08:32:32;;;;;;;7.62;6.58;;;;;;;25.02;64.37;97042.52;1755934;80;20958;-82
2021/08/14 08:34:58;;;;;;;8.00;7.20;;;;;;;24.97;64.00;97045.93;1745490;80;21370;-82
2021/08/14 08:37:24;;;;;;;8.23;7.53;;;;;;;24.95;64.19;97042.73;1708670;81;20976;-82
2021/08/14 08:39:50;;;;;;;8.90;7.28;;;;;;;25.03;64.24;97044.13;1759305;80;20952;-82
2021/08/14 08:42:15;;;;;;;8.90;7.37;;;;;;;25.18;63.64;97040.21;1770926;80;20933;-86
2021/08/14 08:44:41;;;;;;;9.13;7.03;;;;;;;25.34;64.66;97037.89;1769353;80;20943;-85
2021/08/14 08:47:08;;;;;;;7.60;6.80;;;;;;;25.52;64.57;97037.16;1799885;79;20983;-85
2021/08/14 08:49:34;;;;;;;7.03;6.15;;;;;;;25.63;64.42;97034.81;1778783;79;21007;-85
2021/08/14 08:52:00;;;;;;;7.83;6.78;;;;;;;25.77;64.30;97034.63;1800567;78;21352;-85
2021/08/14 08:54:26;;;;;;;8.38;6.95;;;;;;;25.87;64.35;97029.33;1797604;78;20996;-85
2021/08/14 08:56:52;;;;;;;6.87;6.15;;;;;;;25.89;63.17;97027.20;1801884;78;21364;-85
2021/08/14 08:59:17;;;;;;;8.88;7.85;;;;;;;25.95;63.66;97026.66;1802662;78;21405;-85
2021/08/14 09:01:43;;;;;;;8.48;6.83;;;;;;;26.03;62.84;97029.63;1810394;78;21028;-86
2021/08/14 09:04:26;;;;;;;8.25;6.97;;;;;;;26.10;61.59;97025.89;1796724;78;21044;-85
2021/08/14 09:06:52;;;;;;;8.93;7.72;;;;;;;26.13;62.33;97026.69;1802780;78;20993;-85
2021/08/14 09:09:29;;;;;;;7.50;6.78;;;;;;;26.23;61.96;97024.84;1799121;79;20969;-85
2021/08/14 09:12:09;;;;;;;8.43;7.00;;;;;;;26.30;63.41;97022.70;1798451;79;20984;-83
2021/08/14 09:14:46;;;;;;;11.12;7.15;;;;;;;26.36;62.83;97019.55;1814328;78;22067;-85
2021/08/14 09:17:12;;;;;;;8.73;7.83;;;;;;;26.36;62.83;97019.55;1802411;78;20988;-84
2021/08/14 09:19:38;;;;;;;9.20;6.80;;;;;;;26.46;62.66;97016.06;1803241;79;20997;-84
2021/08/14 09:22:20;;;;;;;8.15;6.85;;;;;;;26.51;63.09;97012.05;1799078;78;21343;-84
2021/08/14 09:24:46;;;;;;;7.83;7.12;;;;;;;26.58;63.18;97011.27;1804948;78;20985;-84
2021/08/14 09:27:15;;;;;;;7.92;7.22;;;;;;;26.60;62.15;97012.59;1808695;79;21391;-85
2021/08/14 09:29:40;;;;;;;12.07;8.95;;;;;;;26.62;61.55;97010.45;1798662;78;20921;-84
2021/08/14 09:32:11;;;;;;;11.03;8.48;;;;;;;26.62;61.26;97005.66;1800202;78;20989;-84
2021/08/14 09:34:43;;;;;;;8.08;7.25;;;;;;;26.68;61.44;97009.10;1801088;79;20969;-84
2021/08/14 09:37:12;;;;;;;8.88;7.97;;;;;;;26.75;61.67;97010.44;1806962;79;21010;-84
2021/08/14 09:40:01;;;;;;;10.05;8.88;;;;;;;26.67;61.75;97004.30;1805316;78;20956;-84
2021/08/14 09:42:28;;;;;;;13.35;11.40;;;;;;;26.62;60.83;97013.66;1790404;78;21584;-84
2021/08/14 09:45:13;;;;;;;9.20;8.33;;;;;;;26.62;61.29;97008.32;1806645;78;20933;-84
2021/08/14 09:47:44;;;;;;;8.15;7.33;;;;;;;26.65;60.42;97007.78;1807375;78;20946;-83
2021/08/14 09:50:13;;;;;;;9.60;8.63;;;;;;;26.72;61.82;97008.31;1800193;78;20982;-84
2021/08/14 09:52:41;;;;;;;8.90;7.83;;;;;;;26.81;61.56;97006.68;1802673;78;20981;-83
2021/08/14 09:55:13;;;;;;;10.50;7.97;;;;;;;26.84;61.04;97005.34;1784168;78;21015;-83
2021/08/14 09:57:39;;;;;;;8.73;7.97;;;;;;;26.87;60.69;97001.62;1797739;79;21347;-86
2021/08/14 10:00:07;;;;;;;9.20;8.08;;;;;;;26.91;60.74;96996.53;1801534;78;21021;-87
2021/08/14 10:02:32;;;;;;;10.13;7.00;;;;;;;26.98;61.04;97000.23;1804158;78;21000;-86
2021/08/14 10:04:58;;;;;;;9.48;7.60;;;;;;;27.04;61.65;97000.53;1803063;79;21335;-87
2021/08/14 10:07:25;;;;;;;8.60;7.80;;;;;;;27.15;62.48;97002.08;1795412;78;21079;-86
2021/08/14 10:09:51;;;;;;;8.20;7.50;;;;;;;27.15;62.48;97002.08;1798888;78;20940;-85
2021/08/14 10:12:18;;;;;;;9.68;7.30;;;;;;;27.19;61.43;96988.48;1799016;78;20921;-88
2021/08/14 10:14:46;;;;;;;8.70;7.70;;;;;;;27.24;60.34;96989.78;1796892;78;20932;-86
2021/08/14 10:17:14;;;;;;;8.58;7.78;;;;;;;27.14;60.43;96986.61;1802579;77;21041;-84
2021/08/14 10:19:40;;;;;;;8.70;7.83;;;;;;;27.24;60.36;96986.32;1770221;79;21357;-84
2021/08/14 10:22:07;;;;;;;8.30;7.47;;;;;;;27.33;60.01;96977.99;1803939;78;21077;-84
2021/08/14 10:24:39;;;;;;;9.43;7.40;;;;;;;27.43;59.57;96980.63;1799769;78;21346;-84
2021/08/14 10:27:11;;;;;;;10.60;7.60;;;;;;;27.53;60.20;96977.91;1801349;78;21032;-84
2021/08/14 10:29:45;;;;;;;8.95;6.50;;;;;;;27.57;58.25;96980.28;1762091;80;20991;-83
2021/08/14 10:32:11;;;;;;;8.53;6.72;;;;;;;27.65;57.72;96972.25;1753046;80;21050;-83
2021/08/14 10:34:37;;;;;;;7.62;6.92;;;;;;;27.73;59.52;96970.34;1736928;81;21083;-84
2021/08/14 10:37:30;;;;;;;7.75;7.05;;;;;;;27.66;59.40;96970.66;1750493;80;21393;-84
2021/08/14 10:39:57;;;;;;;10.03;7.53;;;;;;;27.71;58.71;96970.62;1748885;81;20996;-84
2021/08/14 10:42:52;;;;;;;8.65;7.20;;;;;;;27.78;58.72;96968.42;1745948;80;21036;-84
2021/08/14 10:45:35;;;;;;;8.55;7.12;;;;;;;27.91;58.02;96972.89;1754989;80;20955;-84
2021/08/14 10:48:04;;;;;;;8.95;7.58;;;;;;;28.07;58.90;96969.02;1735777;81;20948;-84
2021/08/14 10:50:38;;;;;;;8.08;7.17;;;;;;;28.12;57.39;96967.64;1736414;82;21315;-84
2021/08/14 10:53:18;;;;;;;7.65;6.75;;;;;;;28.20;56.74;96968.93;1724638;82;20958;-84
2021/08/14 10:55:49;;;;;;;7.95;6.85;;;;;;;28.27;56.93;96955.52;1741344;81;21025;-84
2021/08/14 10:58:32;;;;;;;11.23;7.27;;;;;;;28.31;55.92;96955.24;1736602;81;21355;-84
2021/08/14 11:01:13;;;;;;;7.75;7.05;;;;;;;28.35;55.57;96958.94;1695567;81;20979;-84
2021/08/14 11:03:39;;;;;;;8.13;7.27;;;;;;;28.43;55.62;96960.19;1740575;81;21398;-84
2021/08/14 11:06:28;;;;;;;7.28;6.67;;;;;;;28.51;54.67;96956.12;1732780;82;21221;-84
2021/08/14 11:09:19;;;;;;;7.60;6.75;;;;;;;28.56;53.98;96952.84;1793779;78;21402;-84
2021/08/14 11:11:59;;;;;;;8.73;6.92;;;;;;;28.61;55.89;96945.31;1789439;78;20992;-84
2021/08/14 11:14:42;;;;;;;7.78;7.08;;;;;;;28.78;55.89;96945.66;1789569;78;20942;-84
2021/08/14 11:17:07;;;;;;;7.37;6.65;;;;;;;28.93;56.44;96948.19;1777352;78;20964;-84
2021/08/14 11:19:49;;;;;;;7.33;6.42;;;;;;;29.05;53.97;96944.32;1798786;78;20921;-84
2021/08/14 11:22:34;;;;;;;7.53;6.37;;;;;;;29.14;55.63;96950.09;1750361;80;21036;-84
2021/08/14 11:25:05;;;;;;;9.93;6.87;;;;;;;29.28;55.28;96940.25;1752750;80;21006;-84
2021/08/14 11:27:33;;;;;;;7.53;6.83;;;;;;;29.25;54.15;96947.53;1759395;80;21102;-84
2021/08/14 11:30:08;;;;;;;8.58;6.87;;;;;;;29.23;53.48;96940.88;1767975;80;20979;-84
2021/08/14 11:32:33;;;;;;;7.15;6.45;;;;;;;29.17;53.80;96948.18;1800609;78;20937;-84
2021/08/14 11:35:00;;;;;;;7.67;6.65;;;;;;;29.15;53.27;96935.64;1797789;78;20909;-84
2021/08/14 11:37:26;;;;;;;7.40;6.70;;;;;;;28.96;53.03;96934.78;1797184;78;20970;-84
2021/08/14 11:40:04;;;;;;;8.75;6.62;;;;;;;28.88;53.82;96928.73;1798945;78;21016;-84
2021/08/14 11:42:31;;;;;;;8.40;6.67;;;;;;;28.91;53.51;96926.83;1808420;78;21357;-83
2021/08/14 11:44:59;;;;;;;8.35;6.60;;;;;;;28.91;53.45;96929.50;1769634;80;21258;-84
2021/08/14 11:47:38;;;;;;;6.87;6.28;;;;;;;28.89;53.33;96917.75;1790892;78;21019;-84
2021/08/14 11:50:07;;;;;;;7.05;6.45;;;;;;;28.94;53.27;96928.38;1801338;78;20984;-84
2021/08/14 11:52:32;;;;;;;8.20;7.22;;;;;;;28.89;53.56;96924.44;1800915;78;21378;-84
2021/08/14 11:55:03;;;;;;;7.35;6.42;;;;;;;28.86;53.69;96929.03;1800008;78;20925;-84
2021/08/14 11:57:31;;;;;;;8.88;6.53;;;;;;;29.01;54.53;96932.06;1797099;78;21023;-84
2021/08/14 11:59:59;;;;;;;7.62;6.47;;;;;;;29.07;52.29;96929.56;1777806;79;20943;-84
2021/08/14 12:02:26;;;;;;;8.38;7.53;;;;;;;29.18;52.63;96924.35;1769901;79;20940;-84
2021/08/14 12:04:53;;;;;;;7.75;6.95;;;;;;;29.36;54.32;96924.11;1768373;80;21015;-84
2021/08/14 12:07:19;;;;;;;7.67;6.87;;;;;;;29.25;53.43;96921.30;1791763;78;20969;-83
2021/08/14 12:09:45;;;;;;;10.13;7.70;;;;;;;29.00;53.91;96922.45;1799127;78;20969;-83
2021/08/14 12:12:17;;;;;;;7.90;6.83;;;;;;;28.73;53.52;96919.52;1796850;78;21508;-84
2021/08/14 12:14:43;;;;;;;7.78;5.95;;;;;;;28.64;54.08;96920.70;1798584;78;21003;-84
2021/08/14 12:17:09;;;;;;;7.70;6.83;;;;;;;28.63;54.30;96911.06;1805181;78;20941;-86
2021/08/14 12:19:34;;;;;;;7.50;6.80;;;;;;;28.44;53.54;96915.00;1777769;79;21311;-85
2021/08/14 12:22:11;;;;;;;9.63;7.35;;;;;;;28.22;54.32;96918.68;1804958;78;20938;-85
2021/08/14 12:24:38;;;;;;;9.68;7.50;;;;;;;28.06;54.13;96915.34;1770510;78;20995;-85
2021/08/14 12:27:23;;;;;;;8.00;6.90;;;;;;;27.96;54.46;96924.77;1800465;78;22089;-85
2021/08/14 12:29:48;;;;;;;7.72;6.97;;;;;;;27.83;54.19;96918.75;1794683;78;21017;-86
2021/08/14 12:32:14;;;;;;;9.18;7.37;;;;;;;27.65;55.00;96929.53;1805854;78;21062;-85
2021/08/14 12:34:43;;;;;;;8.15;7.12;;;;;;;27.53;55.42;96931.74;1779493;79;21009;-85
2021/08/14 12:37:12;;;;;;;6.97;6.22;;;;;;;27.43;55.06;96928.05;1769992;80;21078;-85
2021/08/14 12:39:56;;;;;;;8.63;7.05;;;;;;;27.67;55.28;96928.75;1801092;78;21073;-86
2021/08/14 12:42:28;;;;;;;12.18;8.53;;;;;;;27.93;58.15;96921.33;1796627;78;20969;-85
2021/08/14 12:44:54;;;;;;;8.43;7.62;;;;;;;28.04;56.40;96912.95;1789629;78;21327;-85
2021/08/14 12:47:31;;;;;;;7.35;6.50;;;;;;;27.97;57.06;96913.80;1788463;78;20988;-86
2021/08/14 12:50:28;;;;;;;8.05;6.83;;;;;;;27.82;57.06;96920.59;1800507;78;21001;-85
2021/08/14 12:53:08;;;;;;;9.68;7.15;;;;;;;27.69;58.53;96914.04;1763370;80;21071;-86
2021/08/14 12:55:41;;;;;;;10.40;7.03;;;;;;;27.56;58.12;96911.95;1762823;79;21270;-87
2021/08/14 12:58:16;;;;;;;7.45;6.75;;;;;;;27.44;58.38;96912.30;1767994;80;21024;-85
2021/08/14 13:00:48;;;;;;;8.05;7.25;;;;;;;27.34;58.37;96907.58;1771455;80;21302;-86
2021/08/14 13:03:14;;;;;;;8.25;7.42;;;;;;;27.56;58.41;96906.63;1773554;80;21406;-87
2021/08/14 13:05:40;;;;;;;7.28;6.28;;;;;;;27.86;57.42;96907.51;1761916;80;21050;-86
2021/08/14 13:08:06;;;;;;;7.62;6.58;;;;;;;28.08;56.20;96908.64;1766427;80;21042;-86
2021/08/14 13:10:34;;;;;;;7.08;6.30;;;;;;;28.32;56.06;96903.39;1768230;80;20953;-86
2021/08/14 13:13:00;;;;;;;7.28;6.42;;;;;;;28.52;56.05;96901.03;1756886;80;20953;-85
2021/08/14 13:15:26;;;;;;;8.08;7.33;;;;;;;28.63;56.61;96891.80;1711263;81;21412;-85
2021/08/14 13:17:53;;;;;;;7.97;6.50;;;;;;;28.67;54.93;96888.05;1792540;77;21035;-83
2021/08/14 13:20:20;;;;;;;8.35;6.78;;;;;;;28.69;54.74;96886.67;1806099;78;21032;-84
2021/08/14 13:22:46;;;;;;;6.85;6.25;;;;;;;28.77;54.62;96889.78;1793442;78;20944;-83
2021/08/14 13:25:14;;;;;;;8.28;6.22;;;;;;;28.82;56.52;96890.54;1801628;78;20972;-83
2021/08/14 13:27:40;;;;;;;8.28;7.40;;;;;;;28.86;56.38;96892.92;1767219;80;20973;-83
2021/08/14 13:30:15;;;;;;;8.23;7.50;;;;;;;28.91;55.20;96884.03;1758327;80;20992;-82
2021/08/14 13:32:41;;;;;;;7.95;6.75;;;;;;;29.03;57.15;96891.10;1797828;78;20984;-84
2021/08/14 13:35:08;;;;;;;8.45;6.95;;;;;;;29.02;56.98;96885.50;1802934;78;21813;-82
2021/08/14 13:37:35;;;;;;;9.58;7.37;;;;;;;29.04;57.35;96887.34;1799397;78;20972;-84
2021/08/14 13:40:00;;;;;;;8.45;6.72;;;;;;;29.07;55.15;96889.98;1782576;78;21008;-82
2021/08/14 13:42:27;;;;;;;8.98;7.22;;;;;;;29.12;54.89;96888.56;1795513;78;20997;-83
2021/08/14 13:44:54;;;;;;;7.62;6.83;;;;;;;29.16;55.60;96885.05;1796271;78;21370;-83
2021/08/14 13:47:19;;;;;;;7.92;6.95;;;;;;;29.15;53.88;96885.34;1784218;78;20957;-84
2021/08/14 13:49:45;;;;;;;7.62;6.92;;;;;;;29.22;52.79;96884.42;1800715;78;21294;-85
2021/08/14 13:52:11;;;;;;;7.87;7.10;;;;;;;29.23;53.53;96880.66;1803039;78;20952;-84
2021/08/14 13:54:37;;;;;;;8.30;7.50;;;;;;;29.31;52.79;96878.69;1765698;81;21069;-84
2021/08/14 13:57:03;;;;;;;8.80;7.50;;;;;;;29.36;54.82;96875.93;1759215;80;21484;-84
2021/08/14 13:59:29;;;;;;;8.63;6.97;;;;;;;29.35;54.18;96877.02;1757627;80;20938;-86
2021/08/14 14:01:54;;;;;;;8.88;7.97;;;;;;;29.36;55.23;96879.95;1793840;78;21051;-83
2021/08/14 14:04:20;;;;;;;9.60;7.72;;;;;;;29.39;53.20;96878.02;1793401;78;21358;-84
2021/08/14 14:06:46;;;;;;;8.83;7.65;;;;;;;29.43;53.78;96879.02;1794898;78;20991;-84
2021/08/14 14:09:11;;;;;;;8.20;7.40;;;;;;;29.48;54.72;96878.20;1793270;78;20954;-85
2021/08/14 14:11:37;;;;;;;7.87;7.15;;;;;;;29.49;54.49;96878.45;1792645;79;20967;-84
2021/08/14 14:14:03;;;;;;;7.72;6.92;;;;;;;29.52;55.14;96880.55;1793246;78;21383;-85
2021/08/14 14:16:29;;;;;;;8.63;7.72;;;;;;;29.57;55.78;96882.59;1804121;78;20949;-85
2021/08/14 14:18:55;;;;;;;8.28;6.58;;;;;;;29.54;54.17;96875.69;1781464;79;21295;-85
2021/08/14 14:21:21;;;;;;;13.98;12.50;;;;;;;29.49;55.32;96881.14;1804992;78;21334;-85
2021/08/14 14:23:46;;;;;;;20.70;16.77;;;;;;;29.52;55.01;96877.33;1804236;78;20917;-85
2021/08/14 14:26:12;;;;;;;11.48;8.28;;;;;;;29.57;55.52;96879.12;1794161;78;20992;-85
2021/08/14 14:28:38;;;;;;;10.15;8.48;;;;;;;29.62;55.90;96871.03;1798116;79;20909;-84
2021/08/14 14:31:04;;;;;;;8.10;7.40;;;;;;;29.64;56.77;96879.56;1802474;79;20917;-85
2021/08/14 14:33:30;;;;;;;8.75;7.33;;;;;;;29.56;53.71;96873.52;1802001;78;21329;-85
2021/08/14 14:35:55;;;;;;;9.80;7.53;;;;;;;29.56;54.68;96874.86;1798183;78;20920;-85
2021/08/14 14:38:21;;;;;;;9.13;8.23;;;;;;;29.65;53.82;96875.00;1801912;78;21043;-85
2021/08/14 14:40:47;;;;;;;11.20;9.63;;;;;;;29.71;53.06;96873.28;1801096;79;21396;-84
2021/08/14 14:43:13;;;;;;;13.45;10.13;;;;;;;29.78;52.66;96871.04;1791397;78;20953;-85
2021/08/14 14:45:39;;;;;;;9.98;7.92;;;;;;;29.81;52.10;96865.63;1805917;78;20989;-85
2021/08/14 14:48:05;;;;;;;6.45;5.83;;;;;;;29.86;50.73;96865.00;1800888;78;21986;-85
2021/08/14 14:50:31;;;;;;;11.50;10.15;;;;;;;29.86;50.36;96868.22;1801100;78;21290;-85
2021/08/14 14:52:56;;;;;;;8.03;7.22;;;;;;;29.92;50.26;96867.58;1803451;79;20926;-85
2021/08/14 14:55:23;;;;;;;10.35;7.60;;;;;;;30.00;51.27;96866.92;1795884;79;20931;-84
2021/08/14 14:57:49;;;;;;;8.18;6.50;;;;;;;30.05;51.44;96861.49;1797245;79;21076;-85
2021/08/14 15:00:16;;;;;;;9.05;7.15;;;;;;;30.10;49.94;96859.55;1795669;78;20956;-84
2021/08/14 15:02:41;;;;;;;8.50;7.75;;;;;;;30.14;51.78;96855.72;1802708;78;21347;-85
2021/08/14 15:05:08;;;;;;;7.80;7.00;;;;;;;30.08;49.98;96859.02;1801419;78;20965;-85
2021/08/14 15:07:34;;;;;;;7.17;6.47;;;;;;;30.06;52.16;96855.84;1800576;78;20938;-85
2021/08/14 15:10:00;;;;;;;7.65;6.85;;;;;;;30.02;51.86;96854.81;1794935;78;20879;-85
2021/08/14 15:12:26;;;;;;;7.17;5.92;;;;;;;30.01;52.12;96847.08;1801890;79;20921;-84
2021/08/14 15:14:52;;;;;;;7.85;5.90;;;;;;;29.99;50.13;96847.92;1797995;79;21017;-84
2021/08/14 15:17:17;;;;;;;9.68;6.20;;;;;;;29.93;49.24;96847.73;1803919;79;21052;-85
2021/08/14 15:19:44;;;;;;;8.60;6.50;;;;;;;29.97;49.26;96842.86;1793121;79;20917;-85
2021/08/14 15:22:09;;;;;;;8.08;6.30;;;;;;;29.99;49.72;96839.34;1795192;78;20961;-85
2021/08/14 15:24:35;;;;;;;7.33;6.17;;;;;;;29.98;50.33;96838.29;1792831;79;20980;-85
2021/08/14 15:27:01;;;;;;;8.65;6.72;;;;;;;29.89;49.35;96830.13;1800658;79;20999;-85
2021/08/14 15:29:28;;;;;;;5.97;5.47;;;;;;;29.86;50.81;96824.02;1798001;79;21012;-85
2021/08/14 15:31:55;;;;;;;7.72;6.97;;;;;;;29.88;52.99;96828.54;1808773;78;20910;-85
2021/08/14 15:34:21;;;;;;;8.23;6.45;;;;;;;29.82;51.68;96824.37;1789439;78;21053;-85
2021/08/14 15:36:47;;;;;;;9.05;6.62;;;;;;;29.73;49.17;96818.88;1797877;78;21020;-85
2021/08/14 15:39:13;;;;;;;7.03;6.33;;;;;;;29.71;51.32;96814.91;1766895;80;21062;-85
2021/08/14 15:41:39;;;;;;;7.00;6.30;;;;;;;29.73;52.57;96818.88;1743040;81;21431;-84
2021/08/14 15:44:05;;;;;;;7.60;5.95;;;;;;;29.70;52.53;96820.81;1805038;78;21021;-85
2021/08/14 15:46:31;;;;;;;7.50;5.87;;;;;;;29.59;52.96;96824.19;1809396;78;20975;-85
2021/08/14 15:48:57;;;;;;;8.88;6.05;;;;;;;29.46;51.66;96819.61;1819346;78;21564;-85
2021/08/14 15:51:22;;;;;;;8.55;6.37;;;;;;;29.42;53.21;96817.75;1800606;78;20902;-85
2021/08/14 15:53:48;;;;;;;8.20;6.05;;;;;;;29.35;53.07;96824.03;1814480;78;20920;-85
2021/08/14 15:56:14;;;;;;;6.20;5.60;;;;;;;29.25;52.85;96822.29;1808686;78;21286;-85
2021/08/14 15:58:39;;;;;;;7.83;6.12;;;;;;;29.18;51.71;96818.66;1806609;78;21008;-85
2021/08/14 16:01:06;;;;;;;7.70;6.42;;;;;;;29.16;51.71;96822.70;1811010;78;20996;-84
2021/08/14 16:03:31;;;;;;;6.50;5.90;;;;;;;29.08;53.13;96818.79;1799106;78;21689;-85
2021/08/14 16:05:59;;;;;;;7.22;6.37;;;;;;;29.04;53.45;96813.77;1809266;78;20982;-85
2021/08/14 16:08:25;;;;;;;7.78;7.05;;;;;;;28.86;53.25;96808.67;1808394;78;21431;-84
2021/08/14 16:10:50;;;;;;;7.28;6.35;;;;;;;28.56;53.92;96819.19;1810050;78;20942;-84
2021/08/14 16:13:16;;;;;;;7.65;6.85;;;;;;;28.23;54.97;96825.42;1810672;78;21005;-85
2021/08/14 16:15:42;;;;;;;8.28;6.47;;;;;;;27.93;55.91;96819.84;1803053;78;20997;-85
2021/08/14 16:18:08;;;;;;;7.22;6.25;;;;;;;27.72;56.66;96824.58;1809117;78;20976;-84
2021/08/14 16:20:36;;;;;;;8.13;6.47;;;;;;;27.43;57.34;96815.97;1809602;79;21343;-84
2021/08/14 16:23:04;;;;;;;8.15;6.60;;;;;;;27.17;57.89;96815.37;1802240;78;20938;-87
2021/08/14 16:25:29;;;;;;;6.87;6.20;;;;;;;27.04;58.51;96812.52;1802095;78;20968;-88
2021/08/14 16:27:55;;;;;;;7.58;6.58;;;;;;;27.02;58.89;96816.00;1805378;78;20988;-88
2021/08/14 16:30:21;;;;;;;7.40;6.03;;;;;;;26.90;59.35;96812.30;1806703;78;21026;-87
2021/08/14 16:32:47;;;;;;;7.70;6.78;;;;;;;26.92;59.60;96816.28;1799350;77;21048;-87
2021/08/14 16:35:12;;;;;;;7.53;6.08;;;;;;;26.94;59.64;96805.33;1801856;79;20910;-86
2021/08/14 16:37:39;;;;;;;6.30;5.72;;;;;;;26.95;59.49;96804.26;1811384;79;21010;-88
2021/08/14 16:40:06;;;;;;;7.08;5.72;;;;;;;26.96;59.54;96801.05;1795401;79;21077;-90
2021/08/14 16:42:32;;;;;;;7.20;5.95;;;;;;;26.93;59.70;96797.88;1806586;78;20999;-89
2021/08/14 16:44:58;;;;;;;6.50;5.83;;;;;;;26.93;59.81;96795.20;1802542;78;21503;-88
2021/08/14 16:47:24;;;;;;;8.30;6.92;;;;;;;26.96;59.85;96795.72;1807109;78;21046;-89
2021/08/14 16:49:49;;;;;;;7.28;5.87;;;;;;;26.99;59.85;96792.50;1807402;78;21016;-88
2021/08/14 16:52:16;;;;;;;7.92;7.22;;;;;;;27.04;60.06;96792.52;1811276;78;21071;-88
2021/08/14 16:54:42;;;;;;;7.37;6.55;;;;;;;27.07;60.14;96792.75;1805755;78;20975;-89
2021/08/14 16:57:07;;;;;;;6.78;6.17;;;;;;;27.07;60.16;96798.09;1807080;79;21024;-89
2021/08/14 16:59:33;;;;;;;6.97;6.28;;;;;;;27.08;60.21;96796.22;1797677;78;21070;-90
2021/08/14 17:01:59;;;;;;;7.62;6.62;;;;;;;27.08;60.32;96801.02;1806169;78;20976;-88
2021/08/14 17:04:26;;;;;;;7.53;6.70;;;;;;;26.98;60.40;96799.70;1807749;78;21028;-89
2021/08/14 17:06:52;;;;;;;11.12;6.80;;;;;;;26.79;60.33;96791.55;1804811;77;21007;-89
2021/08/14 17:09:18;;;;;;;8.13;6.60;;;;;;;26.59;60.61;96791.13;1784074;78;20940;-89
2021/08/14 17:11:43;;;;;;;8.53;6.92;;;;;;;26.41;60.94;96791.73;1803290;79;20973;-90
2021/08/14 17:14:09;;;;;;;9.63;7.92;;;;;;;26.25;61.21;96788.84;1802278;78;20922;-89
2021/08/14 17:16:35;;;;;;;8.13;6.62;;;;;;;26.09;61.62;96794.74;1805775;78;21376;-89
2021/08/14 17:19:00;;;;;;;7.70;6.90;;;;;;;25.93;61.96;96789.98;1806941;78;21018;-89
2021/08/14 17:21:27;;;;;;;8.00;7.12;;;;;;;25.80;62.29;96792.40;1807082;78;20976;-89
2021/08/14 17:23:54;;;;;;;9.35;6.78;;;;;;;25.68;62.52;96789.48;1800395;78;20988;-87
2021/08/14 17:26:20;;;;;;;9.88;6.97;;;;;;;25.59;62.80;96790.27;1804035;78;21110;-85
2021/08/14 17:28:46;;;;;;;7.60;6.80;;;;;;;25.47;63.04;96787.88;1797534;78;21051;-86
2021/08/14 17:31:12;;;;;;;8.10;7.30;;;;;;;25.34;63.33;96789.19;1810357;78;21045;-86
2021/08/14 17:33:37;;;;;;;7.92;6.80;;;;;;;25.22;63.52;96787.35;1808008;78;20913;-85
2021/08/14 17:36:04;;;;;;;7.65;6.80;;;;;;;25.08;63.78;96787.06;1801584;78;20917;-85
2021/08/14 17:38:32;;;;;;;7.37;6.25;;;;;;;24.95;64.00;96792.05;1798884;78;21066;-86
2021/08/14 17:40:57;;;;;;;7.70;6.42;;;;;;;24.82;64.20;96790.16;1804935;78;20989;-85
2021/08/14 17:43:24;;;;;;;7.25;6.25;;;;;;;24.71;64.33;96787.20;1799864;78;20948;-85
2021/08/14 17:45:50;;;;;;;8.90;6.72;;;;;;;24.61;64.44;96785.86;1803384;78;20967;-85
2021/08/14 17:48:16;;;;;;;7.37;6.55;;;;;;;24.49;64.78;96775.98;1792269;78;20925;-85
2021/08/14 17:50:41;;;;;;;8.50;7.12;;;;;;;24.39;65.01;96775.94;1799940;78;21285;-86
2021/08/14 17:53:07;;;;;;;9.28;7.60;;;;;;;24.24;65.14;96777.96;1804553;78;20972;-85
2021/08/14 17:55:33;;;;;;;8.13;7.35;;;;;;;24.12;65.40;96777.40;1798075;78;20936;-85
2021/08/14 17:57:59;;;;;;;7.97;7.20;;;;;;;24.03;65.71;96777.60;1815946;78;21359;-85
2021/08/14 18:00:24;;;;;;;8.60;7.70;;;;;;;23.96;65.90;96781.83;1770641;78;20973;-85
2021/08/14 18:02:51;;;;;;;9.15;7.35;;;;;;;23.89;65.95;96784.69;1761737;80;20967;-86
2021/08/14 18:05:17;;;;;;;9.03;8.13;;;;;;;23.80;66.01;96783.59;1767150;80;21359;-85
2021/08/14 18:07:43;;;;;;;8.68;7.70;;;;;;;23.72;66.25;96787.23;1765789;80;20995;-86
2021/08/14 18:10:11;;;;;;;8.45;7.60;;;;;;;23.61;66.36;96789.03;1732032;81;21064;-85
2021/08/14 18:12:37;;;;;;;7.85;7.05;;;;;;;23.52;66.51;96787.33;1737141;80;21312;-85
2021/08/14 18:15:06;;;;;;;8.63;7.85;;;;;;;23.46;66.62;96798.16;1738054;80;20989;-86
2021/08/14 18:17:33;;;;;;;8.38;7.40;;;;;;;23.37;66.78;96789.86;1726956;80;21476;-85
2021/08/14 18:20:01;;;;;;;8.38;7.47;;;;;;;23.31;66.86;96794.33;1738480;80;20945;-84
2021/08/14 18:22:26;;;;;;;9.00;7.47;;;;;;;23.24;66.91;96797.70;1735304;80;21371;-85
2021/08/14 18:24:53;;;;;;;9.28;8.25;;;;;;;23.16;67.24;96800.02;1721047;80;21012;-85
2021/08/14 18:27:19;;;;;;;11.10;7.78;;;;;;;23.06;67.42;96802.04;1737326;80;20969;-88
2021/08/14 18:29:45;;;;;;;9.78;7.97;;;;;;;22.89;67.38;96788.09;1739538;80;21291;-88
2021/08/14 18:32:12;;;;;;;8.38;7.58;;;;;;;22.89;67.38;96788.09;1742087;80;21008;-88